Historique des mesures à Cassis (13260), France
Quotidien Résumé Octobre 31, 2017 Unités:  Métrique    US   Métrique/US
« Précédent (Jour)
Suivant (Jour) »
Quotidien Hebdomadaire Mensuel Annuel Période au choix
  Maximum: Minimum: Moyenne:
Température: TemperatureC °C 13.8 °C 15.4 °C
Point de rosée: DewpointC °C 5.1 °C 8.3 °C
Humidité: Humidity % 53 % 59 %
Vitesse du vent: 0 km/h 0 km/h 0 km/h
Rafales: 0 km/h - -
Vent:- - North
Pression: PressurehPa hPa 1015.5 hPa -
Précipitations: 0.0 mm    
Historical Graphs
 
 
Mesures pour : Octobre 31, 2017
Heure Temperature Point de rosée Pression Vent Vitesse du vent Rafales Humidité Pluie (par heure) Conditions
TemperatureC °C DewpointC °C PressurehPa hPa Calm     Humidity % HourlyPrecipMM mm SoftwareType W/m2
00:11 14.6 °C 5.1 °C 1015.5 hPa Calm     53 % 0.0 mm open2300-1.11 W/m2
01:10 14.2 °C 5.6 °C 1015.5 hPa Calm     56 % 0.0 mm open2300-1.11 W/m2
02:11 13.9 °C 6.3 °C 1015.5 hPa Calm     60 % 0.0 mm open2300-1.11 W/m2
03:10 14.0 °C 7.3 °C 1015.5 hPa Calm     64 % 0.0 mm open2300-1.11 W/m2
04:11 13.8 °C 7.5 °C 1015.8 hPa Calm     66 % 0.0 mm open2300-1.11 W/m2
05:10 13.9 °C 8.1 °C 1016.5 hPa Calm     68 % 0.0 mm open2300-1.11 W/m2
06:11 14.2 °C 7.7 °C 1016.5 hPa Calm     65 % 0.0 mm open2300-1.11 W/m2
07:10 14.2 °C 7.2 °C 1017.2 hPa Calm     63 % 0.0 mm open2300-1.11 W/m2
08:11 14.5 °C 7.5 °C 1017.8 hPa Calm     63 % 0.0 mm open2300-1.11 W/m2
09:10 16.2 °C 8.7 °C 1018.5 hPa Calm     61 % 0.0 mm open2300-1.11 W/m2
10:11 17.8 °C 8.8 °C 1018.8 hPa Calm     56 % 0.0 mm open2300-1.11 W/m2
11:10 18.9 °C 9.9 °C 1018.8 hPa Calm   2.3 km/h 56 % 0.0 mm open2300-1.11 W/m2
12:11 19.4 °C 10.1 °C 1018.8 hPa Calm   4.2 km/h 55 % 0.0 mm open2300-1.11 W/m2
13:10 19.3 °C 10.6 °C 1018.5 hPa Calm     57 % 0.0 mm open2300-1.11 W/m2
14:11 19.3 °C 10.8 °C 1018.5 hPa Calm     58 % 0.0 mm open2300-1.11 W/m2
15:10 19.4 °C 11.2 °C 1018.5 hPa Calm   4.2 km/h 59 % 0.0 mm open2300-1.11 W/m2
16:11 18.9 °C 11.0 °C 1018.5 hPa Calm     60 % 0.0 mm open2300-1.11 W/m2
17:10 18.3 °C 10.4 °C 1018.8 hPa Calm     60 % 0.0 mm open2300-1.11 W/m2
18:11 16.9 °C 9.8 °C 1019.2 hPa Calm     63 % 0.0 mm open2300-1.11 W/m2
19:10 15.5 °C 9.2 °C 1019.2 hPa Calm     66 % 0.0 mm open2300-1.11 W/m2
20:11 15.2 °C 9.1 °C 1019.2 hPa Calm     67 % 0.0 mm open2300-1.11 W/m2
21:10 14.6 °C 9.0 °C 1019.5 hPa Calm     69 % 0.0 mm open2300-1.11 W/m2
22:11 14.1 °C 8.2 °C 1019.5 hPa Calm     68 % 0.0 mm open2300-1.11 W/m2
23:10 13.8 °C 8.4 °C 1019.9 hPa Calm     70 % 0.0 mm open2300-1.11 W/m2
Observations météo à CASSIS
WU-History script by Weather Underground - 1 mb